Terminal Aerodrome Forecast
Issued by NWS Central Illinois

Home | Current Version | Previous Version | Text Only | Print | Product List | Glossary On
Versions: 1 2 3 4 5 6 7 8 9 10 11 12 13 14 15 16 17 18 19 20 21 22 23 24 25
000
FTUS43 KILX 261700
TAFPIA
TAF
KPIA 261734Z 2618/2718 21007KT P6SM SCT015 OVC060
      TEMPO 2618/2620 3/4SM -SN BR OVC015
     FM262000 19010KT 6SM BR VCSH OVC012
     FM270100 21005KT 4SM BR SCT006 OVC012
     FM270800 33008KT 4SM BR SCT005 OVC010=

USA.gov is the U.S. government's official web portal to all federal, state and local government web resources and services.